sensor_id;sensor_type;location;lat;lon;timestamp;P1;durP1;ratioP1;P2;durP2;ratioP2
21110;SDS011;10713;51.912;4.494;2023-05-07T00:00:08;26.33;;;15.85;;
21110;SDS011;10713;51.912;4.494;2023-05-07T00:02:34;25.30;;;16.27;;
21110;SDS011;10713;51.912;4.494;2023-05-07T00:04:59;29.73;;;16.10;;
21110;SDS011;10713;51.912;4.494;2023-05-07T00:07:25;31.02;;;16.05;;
21110;SDS011;10713;51.912;4.494;2023-05-07T00:09:50;24.63;;;15.63;;
21110;SDS011;10713;51.912;4.494;2023-05-07T00:12:16;26.48;;;14.98;;
21110;SDS011;10713;51.912;4.494;2023-05-07T00:14:41;29.80;;;16.33;;
21110;SDS011;10713;51.912;4.494;2023-05-07T00:17:07;30.02;;;16.95;;
21110;SDS011;10713;51.912;4.494;2023-05-07T00:19:32;29.42;;;18.00;;
21110;SDS011;10713;51.912;4.494;2023-05-07T00:21:57;27.88;;;17.67;;
21110;SDS011;10713;51.912;4.494;2023-05-07T00:24:23;31.65;;;17.73;;
21110;SDS011;10713;51.912;4.494;2023-05-07T00:26:49;33.67;;;19.23;;
21110;SDS011;10713;51.912;4.494;2023-05-07T00:29:14;33.72;;;18.40;;
21110;SDS011;10713;51.912;4.494;2023-05-07T00:31:40;29.60;;;18.42;;
21110;SDS011;10713;51.912;4.494;2023-05-07T00:34:05;30.27;;;18.42;;
21110;SDS011;10713;51.912;4.494;2023-05-07T00:36:31;36.10;;;20.02;;
21110;SDS011;10713;51.912;4.494;2023-05-07T00:38:56;33.10;;;19.48;;
21110;SDS011;10713;51.912;4.494;2023-05-07T00:41:24;30.92;;;19.00;;
21110;SDS011;10713;51.912;4.494;2023-05-07T00:43:50;34.53;;;19.88;;
21110;SDS011;10713;51.912;4.494;2023-05-07T00:46:16;32.67;;;20.20;;
21110;SDS011;10713;51.912;4.494;2023-05-07T00:48:42;35.25;;;19.45;;
21110;SDS011;10713;51.912;4.494;2023-05-07T00:51:09;29.80;;;17.83;;
21110;SDS011;10713;51.912;4.494;2023-05-07T00:53:36;33.75;;;20.00;;
21110;SDS011;10713;51.912;4.494;2023-05-07T00:56:01;33.20;;;20.02;;
21110;SDS011;10713;51.912;4.494;2023-05-07T00:58:27;35.95;;;20.85;;
21110;SDS011;10713;51.912;4.494;2023-05-07T01:00:52;34.90;;;20.38;;
21110;SDS011;10713;51.912;4.494;2023-05-07T01:03:18;36.83;;;21.25;;
21110;SDS011;10713;51.912;4.494;2023-05-07T01:05:43;36.65;;;20.60;;
21110;SDS011;10713;51.912;4.494;2023-05-07T01:08:11;35.00;;;21.45;;
21110;SDS011;10713;51.912;4.494;2023-05-07T01:10:37;36.30;;;21.20;;
21110;SDS011;10713;51.912;4.494;2023-05-07T01:13:02;38.60;;;22.48;;
21110;SDS011;10713;51.912;4.494;2023-05-07T01:15:28;36.92;;;22.05;;
21110;SDS011;10713;51.912;4.494;2023-05-07T01:17:54;40.20;;;22.83;;
21110;SDS011;10713;51.912;4.494;2023-05-07T01:20:20;36.72;;;22.70;;
21110;SDS011;10713;51.912;4.494;2023-05-07T01:22:47;35.95;;;22.70;;
21110;SDS011;10713;51.912;4.494;2023-05-07T01:25:14;38.88;;;22.75;;
21110;SDS011;10713;51.912;4.494;2023-05-07T01:27:41;38.92;;;22.42;;
21110;SDS011;10713;51.912;4.494;2023-05-07T01:30:06;40.75;;;23.42;;
21110;SDS011;10713;51.912;4.494;2023-05-07T01:32:37;37.20;;;22.05;;
21110;SDS011;10713;51.912;4.494;2023-05-07T01:35:09;40.88;;;23.27;;
21110;SDS011;10713;51.912;4.494;2023-05-07T01:37:37;41.15;;;24.38;;
21110;SDS011;10713;51.912;4.494;2023-05-07T01:40:04;40.28;;;23.90;;
21110;SDS011;10713;51.912;4.494;2023-05-07T01:42:32;39.78;;;24.38;;
21110;SDS011;10713;51.912;4.494;2023-05-07T01:44:57;44.05;;;24.92;;
21110;SDS011;10713;51.912;4.494;2023-05-07T01:47:23;39.83;;;24.15;;
21110;SDS011;10713;51.912;4.494;2023-05-07T01:49:49;38.45;;;22.48;;
21110;SDS011;10713;51.912;4.494;2023-05-07T01:52:15;43.55;;;23.77;;
21110;SDS011;10713;51.912;4.494;2023-05-07T01:54:40;42.55;;;24.30;;
21110;SDS011;10713;51.912;4.494;2023-05-07T01:57:06;42.17;;;24.63;;
21110;SDS011;10713;51.912;4.494;2023-05-07T01:59:32;40.00;;;23.95;;
21110;SDS011;10713;51.912;4.494;2023-05-07T02:01:57;40.22;;;23.25;;
21110;SDS011;10713;51.912;4.494;2023-05-07T02:04:22;41.20;;;22.40;;
21110;SDS011;10713;51.912;4.494;2023-05-07T02:06:48;35.65;;;22.45;;
21110;SDS011;10713;51.912;4.494;2023-05-07T02:09:13;41.50;;;24.90;;
21110;SDS011;10713;51.912;4.494;2023-05-07T02:11:39;36.17;;;23.13;;
21110;SDS011;10713;51.912;4.494;2023-05-07T02:14:05;39.10;;;23.00;;
21110;SDS011;10713;51.912;4.494;2023-05-07T02:16:30;39.33;;;22.75;;
21110;SDS011;10713;51.912;4.494;2023-05-07T02:18:56;44.35;;;25.30;;
21110;SDS011;10713;51.912;4.494;2023-05-07T02:21:21;40.72;;;25.00;;
21110;SDS011;10713;51.912;4.494;2023-05-07T02:23:46;43.72;;;25.98;;
21110;SDS011;10713;51.912;4.494;2023-05-07T02:26:12;46.83;;;25.42;;
21110;SDS011;10713;51.912;4.494;2023-05-07T02:28:37;43.83;;;25.58;;
21110;SDS011;10713;51.912;4.494;2023-05-07T02:31:03;44.95;;;25.13;;
21110;SDS011;10713;51.912;4.494;2023-05-07T02:33:28;46.25;;;25.48;;
21110;SDS011;10713;51.912;4.494;2023-05-07T02:35:54;44.15;;;26.33;;
21110;SDS011;10713;51.912;4.494;2023-05-07T02:38:19;42.50;;;25.63;;
21110;SDS011;10713;51.912;4.494;2023-05-07T02:40:45;42.90;;;25.90;;
21110;SDS011;10713;51.912;4.494;2023-05-07T02:43:10;39.80;;;25.55;;
21110;SDS011;10713;51.912;4.494;2023-05-07T02:45:35;40.45;;;25.00;;
21110;SDS011;10713;51.912;4.494;2023-05-07T02:48:04;38.45;;;23.50;;
21110;SDS011;10713;51.912;4.494;2023-05-07T02:50:30;40.33;;;25.00;;
21110;SDS011;10713;51.912;4.494;2023-05-07T02:52:57;37.22;;;23.50;;
21110;SDS011;10713;51.912;4.494;2023-05-07T02:55:23;39.30;;;24.10;;
21110;SDS011;10713;51.912;4.494;2023-05-07T02:57:48;35.88;;;24.10;;
21110;SDS011;10713;51.912;4.494;2023-05-07T03:00:14;35.88;;;23.70;;
21110;SDS011;10713;51.912;4.494;2023-05-07T03:02:41;35.42;;;23.83;;
21110;SDS011;10713;51.912;4.494;2023-05-07T03:05:06;34.55;;;22.95;;
21110;SDS011;10713;51.912;4.494;2023-05-07T03:07:32;31.77;;;21.33;;
21110;SDS011;10713;51.912;4.494;2023-05-07T03:09:58;29.63;;;19.75;;
21110;SDS011;10713;51.912;4.494;2023-05-07T03:12:23;30.55;;;20.73;;
21110;SDS011;10713;51.912;4.494;2023-05-07T03:14:48;34.25;;;21.08;;
21110;SDS011;10713;51.912;4.494;2023-05-07T03:17:14;31.10;;;21.20;;
21110;SDS011;10713;51.912;4.494;2023-05-07T03:19:41;31.55;;;20.90;;
21110;SDS011;10713;51.912;4.494;2023-05-07T03:22:06;33.85;;;21.08;;
21110;SDS011;10713;51.912;4.494;2023-05-07T03:24:31;33.83;;;21.60;;
21110;SDS011;10713;51.912;4.494;2023-05-07T03:26:57;34.53;;;21.63;;
21110;SDS011;10713;51.912;4.494;2023-05-07T03:29:22;32.75;;;22.13;;
21110;SDS011;10713;51.912;4.494;2023-05-07T03:31:48;31.20;;;21.70;;
21110;SDS011;10713;51.912;4.494;2023-05-07T03:34:13;35.08;;;22.20;;
21110;SDS011;10713;51.912;4.494;2023-05-07T03:36:38;34.30;;;22.30;;
21110;SDS011;10713;51.912;4.494;2023-05-07T03:39:04;34.22;;;21.35;;
21110;SDS011;10713;51.912;4.494;2023-05-07T03:41:29;36.42;;;22.58;;
21110;SDS011;10713;51.912;4.494;2023-05-07T03:43:55;35.85;;;21.60;;
21110;SDS011;10713;51.912;4.494;2023-05-07T03:46:20;36.55;;;21.58;;
21110;SDS011;10713;51.912;4.494;2023-05-07T03:48:46;29.13;;;16.75;;
21110;SDS011;10713;51.912;4.494;2023-05-07T03:51:11;34.85;;;21.30;;
21110;SDS011;10713;51.912;4.494;2023-05-07T03:53:36;30.38;;;20.42;;
21110;SDS011;10713;51.912;4.494;2023-05-07T03:56:02;28.40;;;20.42;;
21110;SDS011;10713;51.912;4.494;2023-05-07T03:58:27;32.83;;;20.98;;
21110;SDS011;10713;51.912;4.494;2023-05-07T04:00:53;31.55;;;19.95;;
21110;SDS011;10713;51.912;4.494;2023-05-07T04:03:18;31.77;;;19.73;;
21110;SDS011;10713;51.912;4.494;2023-05-07T04:05:43;32.95;;;21.35;;
21110;SDS011;10713;51.912;4.494;2023-05-07T04:08:09;31.80;;;20.23;;
21110;SDS011;10713;51.912;4.494;2023-05-07T04:10:35;29.80;;;20.60;;
21110;SDS011;10713;51.912;4.494;2023-05-07T04:13:00;31.67;;;21.23;;
21110;SDS011;10713;51.912;4.494;2023-05-07T04:15:26;30.95;;;21.05;;
21110;SDS011;10713;51.912;4.494;2023-05-07T04:17:51;33.70;;;21.13;;
21110;SDS011;10713;51.912;4.494;2023-05-07T04:20:16;29.58;;;20.55;;
21110;SDS011;10713;51.912;4.494;2023-05-07T04:22:42;31.75;;;20.50;;
21110;SDS011;10713;51.912;4.494;2023-05-07T04:25:08;30.70;;;21.05;;
21110;SDS011;10713;51.912;4.494;2023-05-07T04:27:35;28.92;;;20.40;;
21110;SDS011;10713;51.912;4.494;2023-05-07T04:30:01;30.35;;;20.02;;
21110;SDS011;10713;51.912;4.494;2023-05-07T04:32:27;34.83;;;21.42;;
21110;SDS011;10713;51.912;4.494;2023-05-07T04:34:54;31.55;;;20.50;;
21110;SDS011;10713;51.912;4.494;2023-05-07T04:37:20;29.35;;;19.48;;
21110;SDS011;10713;51.912;4.494;2023-05-07T04:39:45;33.13;;;21.15;;
21110;SDS011;10713;51.912;4.494;2023-05-07T04:42:14;33.05;;;20.50;;
21110;SDS011;10713;51.912;4.494;2023-05-07T04:44:40;31.42;;;20.08;;
21110;SDS011;10713;51.912;4.494;2023-05-07T04:47:05;33.33;;;20.80;;
21110;SDS011;10713;51.912;4.494;2023-05-07T04:49:31;28.45;;;19.75;;
21110;SDS011;10713;51.912;4.494;2023-05-07T04:51:56;28.40;;;20.00;;
21110;SDS011;10713;51.912;4.494;2023-05-07T04:54:22;30.88;;;20.70;;
21110;SDS011;10713;51.912;4.494;2023-05-07T04:56:47;29.98;;;19.77;;
21110;SDS011;10713;51.912;4.494;2023-05-07T04:59:12;30.17;;;19.88;;
21110;SDS011;10713;51.912;4.494;2023-05-07T05:01:38;30.23;;;20.80;;
21110;SDS011;10713;51.912;4.494;2023-05-07T05:04:03;33.85;;;20.10;;
21110;SDS011;10713;51.912;4.494;2023-05-07T05:06:28;32.63;;;20.33;;
21110;SDS011;10713;51.912;4.494;2023-05-07T05:08:54;32.90;;;20.15;;
21110;SDS011;10713;51.912;4.494;2023-05-07T05:11:20;31.60;;;20.70;;
21110;SDS011;10713;51.912;4.494;2023-05-07T05:13:45;29.60;;;20.30;;
21110;SDS011;10713;51.912;4.494;2023-05-07T05:16:13;33.00;;;21.25;;
21110;SDS011;10713;51.912;4.494;2023-05-07T05:18:39;32.38;;;20.92;;
21110;SDS011;10713;51.912;4.494;2023-05-07T05:21:05;33.50;;;20.92;;
21110;SDS011;10713;51.912;4.494;2023-05-07T05:23:30;34.47;;;21.52;;
21110;SDS011;10713;51.912;4.494;2023-05-07T05:25:56;36.17;;;21.88;;
21110;SDS011;10713;51.912;4.494;2023-05-07T05:28:22;34.83;;;21.58;;
21110;SDS011;10713;51.912;4.494;2023-05-07T05:30:48;32.42;;;21.48;;
21110;SDS011;10713;51.912;4.494;2023-05-07T05:33:13;31.42;;;20.85;;
21110;SDS011;10713;51.912;4.494;2023-05-07T05:35:38;34.20;;;21.63;;
21110;SDS011;10713;51.912;4.494;2023-05-07T05:38:04;36.00;;;21.83;;
21110;SDS011;10713;51.912;4.494;2023-05-07T05:40:29;31.48;;;21.48;;
21110;SDS011;10713;51.912;4.494;2023-05-07T05:42:55;33.63;;;21.67;;
21110;SDS011;10713;51.912;4.494;2023-05-07T05:45:20;32.45;;;21.38;;
21110;SDS011;10713;51.912;4.494;2023-05-07T05:47:46;33.00;;;22.17;;
21110;SDS011;10713;51.912;4.494;2023-05-07T05:50:11;31.25;;;20.08;;
21110;SDS011;10713;51.912;4.494;2023-05-07T05:52:36;37.22;;;22.95;;
21110;SDS011;10713;51.912;4.494;2023-05-07T05:55:02;36.35;;;23.20;;
21110;SDS011;10713;51.912;4.494;2023-05-07T05:57:27;38.53;;;24.67;;
21110;SDS011;10713;51.912;4.494;2023-05-07T05:59:53;41.95;;;26.33;;
21110;SDS011;10713;51.912;4.494;2023-05-07T06:02:18;44.97;;;25.67;;
21110;SDS011;10713;51.912;4.494;2023-05-07T06:04:44;43.78;;;27.05;;
21110;SDS011;10713;51.912;4.494;2023-05-07T06:07:10;48.15;;;28.17;;
21110;SDS011;10713;51.912;4.494;2023-05-07T06:09:35;60.53;;;30.17;;
21110;SDS011;10713;51.912;4.494;2023-05-07T06:12:00;45.88;;;27.52;;
21110;SDS011;10713;51.912;4.494;2023-05-07T06:14:26;47.75;;;30.02;;
21110;SDS011;10713;51.912;4.494;2023-05-07T06:16:51;52.53;;;30.48;;
21110;SDS011;10713;51.912;4.494;2023-05-07T06:19:16;47.83;;;29.35;;
21110;SDS011;10713;51.912;4.494;2023-05-07T06:21:46;50.55;;;29.67;;
21110;SDS011;10713;51.912;4.494;2023-05-07T06:24:11;48.17;;;28.05;;
21110;SDS011;10713;51.912;4.494;2023-05-07T06:26:36;50.15;;;29.30;;
21110;SDS011;10713;51.912;4.494;2023-05-07T06:29:02;49.70;;;28.85;;
21110;SDS011;10713;51.912;4.494;2023-05-07T06:31:29;44.20;;;24.63;;
21110;SDS011;10713;51.912;4.494;2023-05-07T06:33:56;48.03;;;27.80;;
21110;SDS011;10713;51.912;4.494;2023-05-07T06:36:22;39.47;;;26.25;;
21110;SDS011;10713;51.912;4.494;2023-05-07T06:38:48;45.92;;;27.00;;
21110;SDS011;10713;51.912;4.494;2023-05-07T06:41:13;41.20;;;26.17;;
21110;SDS011;10713;51.912;4.494;2023-05-07T06:43:38;40.90;;;25.48;;
21110;SDS011;10713;51.912;4.494;2023-05-07T06:46:04;39.83;;;25.55;;
21110;SDS011;10713;51.912;4.494;2023-05-07T06:48:30;38.10;;;24.77;;
21110;SDS011;10713;51.912;4.494;2023-05-07T06:50:55;36.30;;;22.50;;
21110;SDS011;10713;51.912;4.494;2023-05-07T06:53:22;32.00;;;22.38;;
21110;SDS011;10713;51.912;4.494;2023-05-07T06:55:48;37.50;;;22.67;;
21110;SDS011;10713;51.912;4.494;2023-05-07T06:58:13;34.65;;;21.95;;
21110;SDS011;10713;51.912;4.494;2023-05-07T07:00:39;27.73;;;17.35;;
21110;SDS011;10713;51.912;4.494;2023-05-07T07:03:05;26.80;;;17.23;;
21110;SDS011;10713;51.912;4.494;2023-05-07T07:05:31;23.75;;;16.50;;
21110;SDS011;10713;51.912;4.494;2023-05-07T07:07:56;23.73;;;16.00;;
21110;SDS011;10713;51.912;4.494;2023-05-07T07:10:21;24.02;;;16.90;;
21110;SDS011;10713;51.912;4.494;2023-05-07T07:12:48;25.58;;;16.85;;
21110;SDS011;10713;51.912;4.494;2023-05-07T07:15:14;25.30;;;18.08;;
21110;SDS011;10713;51.912;4.494;2023-05-07T07:17:39;25.85;;;17.45;;
21110;SDS011;10713;51.912;4.494;2023-05-07T07:20:05;26.38;;;18.73;;
21110;SDS011;10713;51.912;4.494;2023-05-07T07:22:31;28.40;;;19.48;;
21110;SDS011;10713;51.912;4.494;2023-05-07T07:24:57;26.52;;;19.23;;
21110;SDS011;10713;51.912;4.494;2023-05-07T07:27:22;26.45;;;19.50;;
21110;SDS011;10713;51.912;4.494;2023-05-07T07:29:47;27.88;;;19.27;;
21110;SDS011;10713;51.912;4.494;2023-05-07T07:32:13;24.25;;;16.35;;
21110;SDS011;10713;51.912;4.494;2023-05-07T07:34:39;30.60;;;20.90;;
21110;SDS011;10713;51.912;4.494;2023-05-07T07:37:04;27.40;;;19.75;;
21110;SDS011;10713;51.912;4.494;2023-05-07T07:39:34;26.23;;;19.45;;
21110;SDS011;10713;51.912;4.494;2023-05-07T07:42:00;26.00;;;18.02;;
21110;SDS011;10713;51.912;4.494;2023-05-07T07:44:27;30.73;;;19.80;;
21110;SDS011;10713;51.912;4.494;2023-05-07T07:46:53;26.42;;;19.02;;
21110;SDS011;10713;51.912;4.494;2023-05-07T07:49:18;24.92;;;17.30;;
21110;SDS011;10713;51.912;4.494;2023-05-07T07:51:44;24.85;;;17.08;;
21110;SDS011;10713;51.912;4.494;2023-05-07T07:54:09;22.27;;;15.98;;
21110;SDS011;10713;51.912;4.494;2023-05-07T07:56:35;23.85;;;16.77;;
21110;SDS011;10713;51.912;4.494;2023-05-07T07:59:00;25.52;;;18.38;;
21110;SDS011;10713;51.912;4.494;2023-05-07T08:01:26;22.92;;;17.00;;
21110;SDS011;10713;51.912;4.494;2023-05-07T08:03:52;23.55;;;17.70;;
21110;SDS011;10713;51.912;4.494;2023-05-07T08:06:17;24.92;;;18.48;;
21110;SDS011;10713;51.912;4.494;2023-05-07T08:08:43;24.08;;;18.17;;
21110;SDS011;10713;51.912;4.494;2023-05-07T08:11:08;26.08;;;19.42;;
21110;SDS011;10713;51.912;4.494;2023-05-07T08:13:34;30.42;;;20.27;;
21110;SDS011;10713;51.912;4.494;2023-05-07T08:16:00;27.77;;;18.48;;
21110;SDS011;10713;51.912;4.494;2023-05-07T08:18:25;24.67;;;18.55;;
21110;SDS011;10713;51.912;4.494;2023-05-07T08:20:53;28.05;;;19.40;;
21110;SDS011;10713;51.912;4.494;2023-05-07T08:23:18;28.20;;;19.38;;
21110;SDS011;10713;51.912;4.494;2023-05-07T08:25:44;27.55;;;18.98;;
21110;SDS011;10713;51.912;4.494;2023-05-07T08:28:09;26.40;;;20.40;;
21110;SDS011;10713;51.912;4.494;2023-05-07T08:30:35;26.38;;;19.77;;
21110;SDS011;10713;51.912;4.494;2023-05-07T08:33:00;25.45;;;18.98;;
21110;SDS011;10713;51.912;4.494;2023-05-07T08:35:25;23.73;;;16.98;;
21110;SDS011;10713;51.912;4.494;2023-05-07T08:37:52;20.65;;;15.98;;
21110;SDS011;10713;51.912;4.494;2023-05-07T08:40:17;21.92;;;16.60;;
21110;SDS011;10713;51.912;4.494;2023-05-07T08:42:43;20.58;;;14.50;;
21110;SDS011;10713;51.912;4.494;2023-05-07T08:45:09;20.13;;;15.10;;
21110;SDS011;10713;51.912;4.494;2023-05-07T08:47:46;20.40;;;15.63;;
21110;SDS011;10713;51.912;4.494;2023-05-07T08:50:15;19.15;;;15.30;;
21110;SDS011;10713;51.912;4.494;2023-05-07T08:52:41;21.67;;;15.18;;
21110;SDS011;10713;51.912;4.494;2023-05-07T08:55:06;21.20;;;15.60;;
21110;SDS011;10713;51.912;4.494;2023-05-07T08:57:32;17.23;;;12.65;;
21110;SDS011;10713;51.912;4.494;2023-05-07T08:59:58;18.02;;;12.43;;
21110;SDS011;10713;51.912;4.494;2023-05-07T09:02:23;20.65;;;14.10;;
21110;SDS011;10713;51.912;4.494;2023-05-07T09:04:48;19.48;;;13.48;;
21110;SDS011;10713;51.912;4.494;2023-05-07T09:07:14;19.35;;;14.27;;
21110;SDS011;10713;51.912;4.494;2023-05-07T09:09:39;19.95;;;13.90;;
21110;SDS011;10713;51.912;4.494;2023-05-07T09:12:05;21.55;;;15.73;;
21110;SDS011;10713;51.912;4.494;2023-05-07T09:14:30;21.98;;;14.13;;
21110;SDS011;10713;51.912;4.494;2023-05-07T09:16:56;19.90;;;13.57;;
21110;SDS011;10713;51.912;4.494;2023-05-07T09:19:22;20.83;;;14.07;;
21110;SDS011;10713;51.912;4.494;2023-05-07T09:21:48;19.52;;;15.15;;
21110;SDS011;10713;51.912;4.494;2023-05-07T09:24:15;18.65;;;11.55;;
21110;SDS011;10713;51.912;4.494;2023-05-07T09:26:41;18.90;;;12.98;;
21110;SDS011;10713;51.912;4.494;2023-05-07T09:29:07;16.15;;;12.00;;
21110;SDS011;10713;51.912;4.494;2023-05-07T09:31:37;12.45;;;8.00;;
21110;SDS011;10713;51.912;4.494;2023-05-07T09:34:04;16.92;;;10.40;;
21110;SDS011;10713;51.912;4.494;2023-05-07T09:36:31;19.35;;;14.30;;
21110;SDS011;10713;51.912;4.494;2023-05-07T09:38:59;19.05;;;10.65;;
21110;SDS011;10713;51.912;4.494;2023-05-07T09:41:25;16.40;;;11.95;;
21110;SDS011;10713;51.912;4.494;2023-05-07T09:43:54;16.80;;;11.32;;
21110;SDS011;10713;51.912;4.494;2023-05-07T09:46:20;18.90;;;13.63;;
21110;SDS011;10713;51.912;4.494;2023-05-07T09:48:55;20.67;;;13.95;;
21110;SDS011;10713;51.912;4.494;2023-05-07T09:51:28;16.35;;;11.68;;
21110;SDS011;10713;51.912;4.494;2023-05-07T09:53:56;16.77;;;11.45;;
21110;SDS011;10713;51.912;4.494;2023-05-07T09:56:25;18.85;;;12.00;;
21110;SDS011;10713;51.912;4.494;2023-05-07T09:58:52;17.52;;;13.15;;
21110;SDS011;10713;51.912;4.494;2023-05-07T10:01:19;14.43;;;9.23;;
21110;SDS011;10713;51.912;4.494;2023-05-07T10:03:47;19.35;;;12.57;;
21110;SDS011;10713;51.912;4.494;2023-05-07T10:06:15;17.15;;;11.27;;
21110;SDS011;10713;51.912;4.494;2023-05-07T10:08:40;22.05;;;12.18;;
21110;SDS011;10713;51.912;4.494;2023-05-07T10:11:08;17.88;;;12.57;;
21110;SDS011;10713;51.912;4.494;2023-05-07T10:13:34;13.32;;;8.98;;
21110;SDS011;10713;51.912;4.494;2023-05-07T10:16:01;15.00;;;9.82;;
21110;SDS011;10713;51.912;4.494;2023-05-07T10:18:28;16.30;;;12.00;;
21110;SDS011;10713;51.912;4.494;2023-05-07T10:21:02;14.77;;;11.25;;
21110;SDS011;10713;51.912;4.494;2023-05-07T10:23:32;19.58;;;12.23;;
21110;SDS011;10713;51.912;4.494;2023-05-07T10:25:59;16.70;;;12.45;;
21110;SDS011;10713;51.912;4.494;2023-05-07T10:28:28;16.58;;;12.40;;
21110;SDS011;10713;51.912;4.494;2023-05-07T10:33:26;16.30;;;11.57;;
21110;SDS011;10713;51.912;4.494;2023-05-07T10:35:55;16.95;;;11.30;;
21110;SDS011;10713;51.912;4.494;2023-05-07T10:38:24;16.67;;;10.43;;
21110;SDS011;10713;51.912;4.494;2023-05-07T10:40:50;19.55;;;11.93;;
21110;SDS011;10713;51.912;4.494;2023-05-07T10:43:16;18.92;;;11.30;;
21110;SDS011;10713;51.912;4.494;2023-05-07T10:45:41;15.07;;;11.43;;
21110;SDS011;10713;51.912;4.494;2023-05-07T10:48:08;15.02;;;10.13;;
21110;SDS011;10713;51.912;4.494;2023-05-07T10:50:38;14.25;;;8.10;;
21110;SDS011;10713;51.912;4.494;2023-05-07T10:55:43;12.07;;;8.77;;
21110;SDS011;10713;51.912;4.494;2023-05-07T10:58:33;15.00;;;9.80;;
21110;SDS011;10713;51.912;4.494;2023-05-07T11:01:00;14.60;;;8.20;;
21110;SDS011;10713;51.912;4.494;2023-05-07T11:03:27;15.70;;;8.77;;
21110;SDS011;10713;51.912;4.494;2023-05-07T11:06:09;12.80;;;10.00;;
21110;SDS011;10713;51.912;4.494;2023-05-07T11:11:16;16.38;;;10.30;;
21110;SDS011;10713;51.912;4.494;2023-05-07T11:16:23;18.58;;;12.00;;
21110;SDS011;10713;51.912;4.494;2023-05-07T11:18:50;17.23;;;11.10;;
21110;SDS011;10713;51.912;4.494;2023-05-07T11:24:01;17.33;;;10.82;;
21110;SDS011;10713;51.912;4.494;2023-05-07T11:26:29;18.35;;;10.90;;
21110;SDS011;10713;51.912;4.494;2023-05-07T11:28:56;16.77;;;10.57;;
21110;SDS011;10713;51.912;4.494;2023-05-07T11:31:25;18.63;;;10.73;;
21110;SDS011;10713;51.912;4.494;2023-05-07T11:33:53;15.35;;;10.38;;
21110;SDS011;10713;51.912;4.494;2023-05-07T11:36:20;18.52;;;11.00;;
21110;SDS011;10713;51.912;4.494;2023-05-07T11:38:47;20.23;;;11.32;;
21110;SDS011;10713;51.912;4.494;2023-05-07T11:41:12;21.25;;;11.23;;
21110;SDS011;10713;51.912;4.494;2023-05-07T11:43:38;18.92;;;11.57;;
21110;SDS011;10713;51.912;4.494;2023-05-07T11:46:11;17.00;;;11.80;;
21110;SDS011;10713;51.912;4.494;2023-05-07T11:48:37;18.10;;;11.50;;
21110;SDS011;10713;51.912;4.494;2023-05-07T11:53:42;20.55;;;11.15;;
21110;SDS011;10713;51.912;4.494;2023-05-07T11:56:12;16.15;;;11.20;;
21110;SDS011;10713;51.912;4.494;2023-05-07T11:58:39;13.25;;;9.90;;
21110;SDS011;10713;51.912;4.494;2023-05-07T12:01:07;13.95;;;10.15;;
21110;SDS011;10713;51.912;4.494;2023-05-07T12:03:34;17.67;;;10.52;;
21110;SDS011;10713;51.912;4.494;2023-05-07T12:06:00;13.45;;;9.35;;
21110;SDS011;10713;51.912;4.494;2023-05-07T12:08:25;11.00;;;8.80;;
21110;SDS011;10713;51.912;4.494;2023-05-07T12:10:51;13.90;;;9.43;;
21110;SDS011;10713;51.912;4.494;2023-05-07T12:13:17;16.73;;;9.65;;
21110;SDS011;10713;51.912;4.494;2023-05-07T12:15:46;10.65;;;7.55;;
21110;SDS011;10713;51.912;4.494;2023-05-07T12:18:15;14.65;;;10.30;;
21110;SDS011;10713;51.912;4.494;2023-05-07T12:20:40;17.65;;;10.30;;
21110;SDS011;10713;51.912;4.494;2023-05-07T12:23:06;14.38;;;9.73;;
21110;SDS011;10713;51.912;4.494;2023-05-07T12:25:35;12.98;;;9.50;;
21110;SDS011;10713;51.912;4.494;2023-05-07T12:28:04;13.93;;;10.57;;
21110;SDS011;10713;51.912;4.494;2023-05-07T12:30:37;12.05;;;8.35;;
21110;SDS011;10713;51.912;4.494;2023-05-07T12:33:03;14.02;;;9.70;;
21110;SDS011;10713;51.912;4.494;2023-05-07T12:35:29;17.50;;;10.70;;
21110;SDS011;10713;51.912;4.494;2023-05-07T12:38:01;17.55;;;13.02;;
21110;SDS011;10713;51.912;4.494;2023-05-07T12:40:35;15.18;;;10.25;;
21110;SDS011;10713;51.912;4.494;2023-05-07T12:43:02;18.10;;;11.27;;
21110;SDS011;10713;51.912;4.494;2023-05-07T12:45:27;17.63;;;11.95;;
21110;SDS011;10713;51.912;4.494;2023-05-07T12:47:53;16.38;;;10.82;;
21110;SDS011;10713;51.912;4.494;2023-05-07T12:50:18;12.48;;;10.52;;
21110;SDS011;10713;51.912;4.494;2023-05-07T12:52:47;17.88;;;12.40;;
21110;SDS011;10713;51.912;4.494;2023-05-07T12:55:16;21.77;;;11.88;;
21110;SDS011;10713;51.912;4.494;2023-05-07T12:57:42;15.93;;;10.55;;
21110;SDS011;10713;51.912;4.494;2023-05-07T13:00:11;14.20;;;10.77;;
21110;SDS011;10713;51.912;4.494;2023-05-07T13:02:40;15.50;;;11.02;;
21110;SDS011;10713;51.912;4.494;2023-05-07T13:05:07;16.95;;;12.68;;
21110;SDS011;10713;51.912;4.494;2023-05-07T13:07:33;18.48;;;12.63;;
21110;SDS011;10713;51.912;4.494;2023-05-07T13:09:58;15.95;;;12.18;;
21110;SDS011;10713;51.912;4.494;2023-05-07T13:12:23;13.77;;;10.18;;
21110;SDS011;10713;51.912;4.494;2023-05-07T13:14:49;16.00;;;11.30;;
21110;SDS011;10713;51.912;4.494;2023-05-07T13:17:14;27.65;;;13.55;;
21110;SDS011;10713;51.912;4.494;2023-05-07T13:19:39;12.32;;;9.02;;
21110;SDS011;10713;51.912;4.494;2023-05-07T13:22:05;22.40;;;12.60;;
21110;SDS011;10713;51.912;4.494;2023-05-07T13:24:30;15.05;;;9.07;;
21110;SDS011;10713;51.912;4.494;2023-05-07T13:26:55;20.83;;;10.93;;
21110;SDS011;10713;51.912;4.494;2023-05-07T13:29:21;15.60;;;9.70;;
21110;SDS011;10713;51.912;4.494;2023-05-07T13:31:53;20.50;;;12.82;;
21110;SDS011;10713;51.912;4.494;2023-05-07T13:34:19;15.35;;;8.73;;
21110;SDS011;10713;51.912;4.494;2023-05-07T13:36:45;14.15;;;9.07;;
21110;SDS011;10713;51.912;4.494;2023-05-07T13:39:10;19.15;;;9.98;;
21110;SDS011;10713;51.912;4.494;2023-05-07T13:41:36;23.17;;;13.27;;
21110;SDS011;10713;51.912;4.494;2023-05-07T13:44:01;21.20;;;12.95;;
21110;SDS011;10713;51.912;4.494;2023-05-07T13:46:26;26.23;;;14.73;;
21110;SDS011;10713;51.912;4.494;2023-05-07T13:48:52;23.65;;;13.60;;
21110;SDS011;10713;51.912;4.494;2023-05-07T13:51:17;19.42;;;11.73;;
21110;SDS011;10713;51.912;4.494;2023-05-07T13:53:43;20.85;;;12.93;;
21110;SDS011;10713;51.912;4.494;2023-05-07T13:56:08;21.02;;;13.13;;
21110;SDS011;10713;51.912;4.494;2023-05-07T13:58:33;23.48;;;12.02;;
21110;SDS011;10713;51.912;4.494;2023-05-07T14:01:01;27.48;;;15.88;;
21110;SDS011;10713;51.912;4.494;2023-05-07T14:03:26;25.42;;;11.88;;
21110;SDS011;10713;51.912;4.494;2023-05-07T14:05:51;29.17;;;12.32;;
21110;SDS011;10713;51.912;4.494;2023-05-07T14:08:17;24.20;;;12.55;;
21110;SDS011;10713;51.912;4.494;2023-05-07T14:10:44;24.60;;;15.48;;
21110;SDS011;10713;51.912;4.494;2023-05-07T14:13:11;24.30;;;13.55;;
21110;SDS011;10713;51.912;4.494;2023-05-07T14:15:36;21.52;;;13.30;;
21110;SDS011;10713;51.912;4.494;2023-05-07T14:18:02;21.15;;;13.75;;
21110;SDS011;10713;51.912;4.494;2023-05-07T14:20:28;27.38;;;15.60;;
21110;SDS011;10713;51.912;4.494;2023-05-07T14:22:55;22.30;;;11.73;;
21110;SDS011;10713;51.912;4.494;2023-05-07T14:25:20;20.33;;;12.80;;
21110;SDS011;10713;51.912;4.494;2023-05-07T14:27:46;18.17;;;12.35;;
21110;SDS011;10713;51.912;4.494;2023-05-07T14:30:11;23.90;;;12.15;;
21110;SDS011;10713;51.912;4.494;2023-05-07T14:32:37;20.40;;;11.15;;